Time;durP1;ratioP1;P1;durP2;ratioP2;P2;SDS_P1;SDS_P2;PMS_P1;PMS_P2;Temp;Humidity;BMP_temperature;BMP_pressure;BME280_temperature;BME280_humidity;BME280_pressure;Samples;Min_cycle;Max_cycle;Signal;HPM_P1;HPM_P2
2021/07/07 00:00:27;;;;;;;;;;;16.80;99.90;;;;;;5037046;28;19913;-79
2021/07/07 00:02:52;;;;;;;;;;;16.80;99.90;;;;;;5044835;28;19955;-78
2021/07/07 00:05:18;;;;;;;;;;;16.80;99.90;;;;;;5047239;28;19915;-79
2021/07/07 00:07:44;;;;;;;;;;;16.80;99.90;;;;;;5036181;28;19909;-78
2021/07/07 00:10:17;;;;;;;;;;;16.80;99.90;;;;;;5039888;28;19916;-78
2021/07/07 00:12:43;;;;;;;;;;;16.80;99.90;;;;;;5044254;28;19952;-79
2021/07/07 00:15:13;;;;;;;;;;;16.80;99.90;;;;;;5035370;28;19909;-78
2021/07/07 00:17:39;;;;;;;;;;;16.80;99.90;;;;;;5062386;28;19908;-79
2021/07/07 00:20:06;;;;;;;;;;;16.80;99.90;;;;;;5046853;28;19916;-78
2021/07/07 00:22:31;;;;;;;;;;;16.80;99.90;;;;;;5040370;28;19915;-79
2021/07/07 00:24:57;;;;;;;;;;;16.70;99.90;;;;;;5035071;28;19908;-78
2021/07/07 00:27:23;;;;;;;;;;;16.70;99.90;;;;;;5041177;28;19917;-79
2021/07/07 00:29:48;;;;;;;;;;;16.70;99.90;;;;;;5036420;28;19998;-79
2021/07/07 00:32:16;;;;;;;;;;;16.70;99.90;;;;;;5046748;28;19955;-79
2021/07/07 00:34:41;;;;;;;;;;;16.70;99.90;;;;;;5044514;28;19908;-79
2021/07/07 00:37:07;;;;;;;;;;;16.70;99.90;;;;;;5048754;28;19931;-79
2021/07/07 00:39:32;;;;;;;;;;;16.70;99.90;;;;;;5037465;28;19916;-79
2021/07/07 00:41:58;;;;;;;;;;;16.70;99.90;;;;;;5048080;28;19916;-79
2021/07/07 00:44:23;;;;;;;;;;;16.80;99.90;;;;;;5045778;28;19909;-79
2021/07/07 00:46:49;;;;;;;;;;;16.70;99.90;;;;;;5050440;28;19919;-79
2021/07/07 00:49:16;;;;;;;;;;;16.70;99.90;;;;;;5037015;28;19909;-79
2021/07/07 00:51:42;;;;;;;;;;;16.60;99.90;;;;;;5043795;28;19909;-80
2021/07/07 00:54:08;;;;;;;;;;;16.60;99.90;;;;;;5038756;28;20285;-79
2021/07/07 00:56:36;;;;;;;;;;;16.60;99.90;;;;;;5037457;28;19992;-79
2021/07/07 00:59:03;;;;;;;;;;;16.60;99.90;;;;;;5043900;28;19968;-79
2021/07/07 01:01:29;;;;;;;;;;;16.60;99.90;;;;;;5041894;28;20420;-80
2021/07/07 01:03:54;;;;;;;;;;;16.50;99.90;;;;;;5035003;28;19955;-79
2021/07/07 01:06:20;;;;;;;;;;;16.50;99.90;;;;;;5039370;28;19909;-79
2021/07/07 01:08:46;;;;;;;;;;;16.50;99.90;;;;;;5035311;28;19916;-80
2021/07/07 01:11:11;;;;;;;;;;;16.50;99.90;;;;;;5040095;28;19909;-79
2021/07/07 01:13:40;;;;;;;;;;;16.50;99.90;;;;;;5043615;28;19909;-80
2021/07/07 01:16:06;;;;;;;;;;;16.50;99.90;;;;;;5039294;28;19915;-80
2021/07/07 01:18:31;;;;;;;;;;;16.50;99.90;;;;;;5039244;28;20412;-80
2021/07/07 01:20:57;;;;;;;;;;;16.40;99.90;;;;;;5046127;28;19920;-80
2021/07/07 01:23:22;;;;;;;;;;;16.30;99.90;;;;;;5051163;28;19918;-79
2021/07/07 01:25:48;;;;;;;;;;;16.30;99.90;;;;;;5062089;28;19897;-79
2021/07/07 01:28:16;;;;;;;;;;;16.30;99.90;;;;;;5066484;28;19912;-79
2021/07/07 01:30:41;;;;;;;;;;;16.40;99.90;;;;;;5069026;28;19924;-79
2021/07/07 01:33:07;;;;;;;;;;;16.40;99.90;;;;;;5062849;28;19976;-80
2021/07/07 01:35:32;;;;;;;;;;;16.40;99.90;;;;;;5061125;28;19917;-80
2021/07/07 01:37:58;;;;;;;;;;;16.40;99.90;;;;;;5060960;28;19919;-80
2021/07/07 01:40:25;;;;;;;;;;;16.30;99.90;;;;;;5064370;28;19905;-80
2021/07/07 01:42:51;;;;;;;;;;;16.30;99.90;;;;;;5056991;28;19947;-79
2021/07/07 01:45:17;;;;;;;;;;;16.30;99.90;;;;;;5066089;28;19940;-81
2021/07/07 01:47:43;;;;;;;;;;;16.30;99.90;;;;;;5060824;28;19901;-80
2021/07/07 01:50:11;;;;;;;;;;;16.20;99.90;;;;;;5073254;28;19916;-80
2021/07/07 01:52:37;;;;;;;;;;;16.30;99.90;;;;;;5058688;28;19963;-80
2021/07/07 01:55:06;;;;;;;;;;;16.30;99.90;;;;;;5066015;28;20393;-80
2021/07/07 01:57:43;;;;;;;;;;;16.30;99.90;;;;;;5061900;28;19945;-80
2021/07/07 02:00:13;;;;;;;;;;;16.30;99.90;;;;;;5058148;28;19921;-79
2021/07/07 02:02:39;;;;;;;;;;;16.30;99.90;;;;;;5060877;28;19928;-79
2021/07/07 02:05:06;;;;;;;;;;;16.30;99.90;;;;;;5062990;28;19897;-79
2021/07/07 02:07:31;;;;;;;;;;;16.20;99.90;;;;;;5058620;28;19897;-79
2021/07/07 02:09:57;;;;;;;;;;;16.20;99.90;;;;;;5048546;28;20023;-77
2021/07/07 02:12:22;;;;;;;;;;;16.20;99.90;;;;;;5042353;28;20357;-77
2021/07/07 02:14:48;;;;;;;;;;;16.20;99.90;;;;;;5043962;28;20369;-79
2021/07/07 02:17:14;;;;;;;;;;;16.20;99.90;;;;;;5040258;28;21183;-79
2021/07/07 02:19:39;;;;;;;;;;;16.20;99.90;;;;;;5037420;28;19917;-78
2021/07/07 02:22:05;;;;;;;;;;;16.20;99.90;;;;;;5040591;28;19923;-79
2021/07/07 02:24:30;;;;;;;;;;;16.20;99.90;;;;;;5043774;28;19963;-80
2021/07/07 02:26:56;;;;;;;;;;;16.30;99.90;;;;;;5037902;28;19909;-78
2021/07/07 02:29:21;;;;;;;;;;;16.30;99.90;;;;;;5041728;28;19917;-78
2021/07/07 02:31:47;;;;;;;;;;;16.30;99.90;;;;;;5048170;28;19963;-79
2021/07/07 02:34:12;;;;;;;;;;;16.30;99.90;;;;;;5041208;28;20395;-79
2021/07/07 02:36:38;;;;;;;;;;;16.30;99.90;;;;;;5043374;28;19909;-78
2021/07/07 02:39:04;;;;;;;;;;;16.30;99.90;;;;;;5041781;28;19947;-78
2021/07/07 02:41:29;;;;;;;;;;;16.20;99.90;;;;;;5039130;28;20016;-78
2021/07/07 02:43:55;;;;;;;;;;;16.20;99.90;;;;;;5048572;28;20397;-78
2021/07/07 02:46:20;;;;;;;;;;;16.20;99.90;;;;;;5042413;28;19915;-77
2021/07/07 02:48:46;;;;;;;;;;;16.10;99.90;;;;;;5036460;28;19917;-78
2021/07/07 02:51:11;;;;;;;;;;;16.10;99.90;;;;;;5038430;28;19913;-78
2021/07/07 02:53:37;;;;;;;;;;;16.10;99.90;;;;;;5036884;28;19917;-78
2021/07/07 02:56:02;;;;;;;;;;;16.10;99.90;;;;;;5039892;28;19909;-79
2021/07/07 02:58:28;;;;;;;;;;;16.10;99.90;;;;;;5036846;28;19916;-80
2021/07/07 03:00:54;;;;;;;;;;;16.10;99.90;;;;;;5039039;28;20046;-79
2021/07/07 03:03:20;;;;;;;;;;;16.20;99.90;;;;;;5036108;28;19928;-79
2021/07/07 03:05:50;;;;;;;;;;;16.20;99.90;;;;;;5037465;28;20387;-78
2021/07/07 03:08:17;;;;;;;;;;;16.30;99.90;;;;;;5045331;28;19915;-79
2021/07/07 03:10:43;;;;;;;;;;;16.30;99.90;;;;;;5039766;28;19920;-79
2021/07/07 03:13:09;;;;;;;;;;;16.30;99.90;;;;;;5039124;28;20253;-78
2021/07/07 03:15:37;;;;;;;;;;;16.40;99.90;;;;;;5046674;28;20273;-78
2021/07/07 03:18:03;;;;;;;;;;;16.40;99.90;;;;;;5042108;28;20258;-79
2021/07/07 03:20:29;;;;;;;;;;;16.40;99.90;;;;;;5041529;28;19919;-79
2021/07/07 03:22:54;;;;;;;;;;;16.50;99.90;;;;;;5035404;28;19943;-79
2021/07/07 03:25:20;;;;;;;;;;;16.50;99.90;;;;;;5038649;28;19948;-79
2021/07/07 03:27:46;;;;;;;;;;;16.50;99.90;;;;;;5040914;28;19909;-80
2021/07/07 03:30:12;;;;;;;;;;;16.50;99.90;;;;;;5039421;28;19916;-79
2021/07/07 03:32:37;;;;;;;;;;;16.50;99.90;;;;;;5039870;28;19916;-79
2021/07/07 03:35:03;;;;;;;;;;;16.50;99.90;;;;;;5039849;28;19909;-79
2021/07/07 03:37:28;;;;;;;;;;;16.50;99.90;;;;;;5042608;28;19908;-78
2021/07/07 03:39:54;;;;;;;;;;;16.50;99.90;;;;;;5044927;28;19913;-79
2021/07/07 03:42:20;;;;;;;;;;;16.40;99.90;;;;;;5038592;28;19915;-78
2021/07/07 03:44:45;;;;;;;;;;;16.40;99.90;;;;;;5043923;28;19916;-79
2021/07/07 03:47:11;;;;;;;;;;;16.40;99.90;;;;;;5042085;28;19909;-79
2021/07/07 03:49:36;;;;;;;;;;;16.30;99.90;;;;;;5042998;28;19976;-79
2021/07/07 03:52:02;;;;;;;;;;;16.30;99.90;;;;;;5043473;28;19915;-79
2021/07/07 03:54:27;;;;;;;;;;;16.30;99.90;;;;;;5039799;28;19943;-79
2021/07/07 03:56:55;;;;;;;;;;;16.30;99.90;;;;;;5034903;28;19971;-79
2021/07/07 03:59:21;;;;;;;;;;;16.30;99.90;;;;;;5039399;28;19913;-79
2021/07/07 04:01:46;;;;;;;;;;;16.30;99.90;;;;;;5038282;28;19908;-78
2021/07/07 04:04:12;;;;;;;;;;;16.30;99.90;;;;;;5031552;28;19916;-78
2021/07/07 04:06:38;;;;;;;;;;;16.30;99.90;;;;;;5031694;28;19916;-79
2021/07/07 04:09:03;;;;;;;;;;;16.30;99.90;;;;;;5034842;28;19927;-79
2021/07/07 04:11:29;;;;;;;;;;;16.30;99.90;;;;;;5034487;28;19913;-79
2021/07/07 04:13:54;;;;;;;;;;;16.30;99.90;;;;;;5033306;28;19909;-80
2021/07/07 04:16:20;;;;;;;;;;;16.30;99.90;;;;;;5035048;28;20373;-79
2021/07/07 04:18:45;;;;;;;;;;;16.30;99.90;;;;;;5034577;28;19916;-79
2021/07/07 04:21:11;;;;;;;;;;;16.30;99.90;;;;;;5034102;28;19924;-80
2021/07/07 04:23:36;;;;;;;;;;;16.30;99.90;;;;;;5032578;28;19909;-78
2021/07/07 04:26:02;;;;;;;;;;;16.30;99.90;;;;;;5034580;28;19917;-79
2021/07/07 04:28:27;;;;;;;;;;;16.30;99.90;;;;;;5038602;28;19912;-79
2021/07/07 04:30:53;;;;;;;;;;;16.30;99.90;;;;;;5041821;28;19948;-79
2021/07/07 04:33:18;;;;;;;;;;;16.30;99.90;;;;;;5043542;28;19913;-78
2021/07/07 04:35:44;;;;;;;;;;;16.40;99.90;;;;;;5031943;28;19909;-79
2021/07/07 04:38:09;;;;;;;;;;;16.40;99.90;;;;;;5032852;28;19916;-79
2021/07/07 04:40:35;;;;;;;;;;;16.40;99.90;;;;;;5033389;28;19931;-78
2021/07/07 04:43:00;;;;;;;;;;;16.40;99.90;;;;;;5033190;28;20336;-79
2021/07/07 04:45:26;;;;;;;;;;;16.40;99.90;;;;;;5035963;28;20368;-78
2021/07/07 04:47:51;;;;;;;;;;;16.50;99.90;;;;;;5033640;28;19960;-79
2021/07/07 04:50:17;;;;;;;;;;;16.50;99.90;;;;;;5034361;28;19909;-79
2021/07/07 04:52:44;;;;;;;;;;;16.60;99.90;;;;;;5033201;28;19924;-78
2021/07/07 04:55:11;;;;;;;;;;;16.60;99.90;;;;;;5034608;28;19924;-79
2021/07/07 04:57:43;;;;;;;;;;;16.60;99.90;;;;;;5031542;28;19909;-80
2021/07/07 05:00:11;;;;;;;;;;;16.60;99.90;;;;;;5033083;28;19916;-79
2021/07/07 05:02:37;;;;;;;;;;;16.60;99.90;;;;;;5032253;28;19917;-78
2021/07/07 05:05:04;;;;;;;;;;;16.60;99.90;;;;;;5038284;28;19916;-79
2021/07/07 05:07:29;;;;;;;;;;;16.60;99.90;;;;;;5040559;28;19963;-79
2021/07/07 05:09:55;;;;;;;;;;;16.70;99.90;;;;;;5038377;28;20316;-80
2021/07/07 05:12:20;;;;;;;;;;;16.70;99.90;;;;;;5040707;28;19909;-81
2021/07/07 05:14:46;;;;;;;;;;;16.80;99.90;;;;;;5035610;28;19909;-80
2021/07/07 05:17:13;;;;;;;;;;;16.80;99.90;;;;;;5038895;28;19983;-79
2021/07/07 05:19:39;;;;;;;;;;;16.80;99.90;;;;;;5046355;28;19936;-80
2021/07/07 05:22:04;;;;;;;;;;;16.90;99.90;;;;;;5033495;28;19909;-79
2021/07/07 05:24:30;;;;;;;;;;;16.90;99.90;;;;;;5036274;28;19915;-80
2021/07/07 05:26:55;;;;;;;;;;;16.90;99.90;;;;;;5043994;28;20003;-79
2021/07/07 05:29:21;;;;;;;;;;;16.90;99.90;;;;;;5035190;28;20280;-79
2021/07/07 05:31:47;;;;;;;;;;;16.90;99.90;;;;;;5041446;28;19927;-80
2021/07/07 05:34:12;;;;;;;;;;;17.00;99.90;;;;;;5040142;28;19909;-80
2021/07/07 05:36:38;;;;;;;;;;;17.00;99.90;;;;;;5047181;28;19916;-80
2021/07/07 05:39:03;;;;;;;;;;;17.10;99.90;;;;;;5037286;28;19909;-80
2021/07/07 05:41:29;;;;;;;;;;;17.60;99.90;;;;;;5041549;28;20308;-79
2021/07/07 05:43:54;;;;;;;;;;;18.00;99.90;;;;;;5039054;28;19962;-79
2021/07/07 05:46:21;;;;;;;;;;;18.20;99.90;;;;;;5050083;28;19912;-80
2021/07/07 05:48:47;;;;;;;;;;;18.20;99.90;;;;;;5027095;28;20266;-79
2021/07/07 05:51:14;;;;;;;;;;;18.20;99.90;;;;;;5039311;28;19944;-79
2021/07/07 05:53:40;;;;;;;;;;;18.10;99.90;;;;;;5036752;28;19967;-80
2021/07/07 05:56:05;;;;;;;;;;;18.10;99.90;;;;;;5036755;28;19951;-80
2021/07/07 05:58:31;;;;;;;;;;;18.10;99.90;;;;;;5036664;28;19916;-80
2021/07/07 06:00:56;;;;;;;;;;;18.10;99.90;;;;;;5043275;28;19920;-80
2021/07/07 06:03:22;;;;;;;;;;;18.20;99.90;;;;;;5036838;28;19948;-80
2021/07/07 06:05:47;;;;;;;;;;;18.20;99.90;;;;;;5037224;28;19952;-80
2021/07/07 06:08:13;;;;;;;;;;;18.40;99.90;;;;;;5039052;28;19908;-80
2021/07/07 06:10:40;;;;;;;;;;;18.30;99.90;;;;;;5047317;28;19964;-80
2021/07/07 06:13:06;;;;;;;;;;;18.60;99.90;;;;;;5063238;28;20250;-81
2021/07/07 06:15:33;;;;;;;;;;;19.70;99.90;;;;;;5058705;28;19921;-80
2021/07/07 06:17:59;;;;;;;;;;;21.00;99.90;;;;;;5062432;28;19971;-81
2021/07/07 06:20:25;;;;;;;;;;;21.20;99.90;;;;;;5058376;28;19975;-81
2021/07/07 06:22:50;;;;;;;;;;;20.80;99.90;;;;;;5060887;28;19897;-80
2021/07/07 06:25:16;;;;;;;;;;;20.80;99.90;;;;;;5059295;28;19920;-81
2021/07/07 06:27:42;;;;;;;;;;;21.20;99.90;;;;;;5055508;28;19908;-82
2021/07/07 06:30:09;;;;;;;;;;;21.50;99.90;;;;;;5035896;28;19925;-82
2021/07/07 06:32:35;;;;;;;;;;;21.20;99.90;;;;;;5051352;28;19950;-81
2021/07/07 06:35:01;;;;;;;;;;;21.50;99.90;;;;;;5069481;28;19964;-82
2021/07/07 06:37:28;;;;;;;;;;;22.50;99.90;;;;;;5073293;28;19920;-81
2021/07/07 06:39:53;;;;;;;;;;;22.30;99.90;;;;;;5057543;28;19901;-81
2021/07/07 06:42:19;;;;;;;;;;;21.60;99.90;;;;;;5057395;28;19943;-82
2021/07/07 06:44:44;;;;;;;;;;;21.10;99.90;;;;;;5058303;28;19897;-82
2021/07/07 06:47:11;;;;;;;;;;;20.60;99.90;;;;;;5055010;28;19920;-82
2021/07/07 06:49:37;;;;;;;;;;;20.10;99.90;;;;;;5060363;28;19901;-81
2021/07/07 06:52:03;;;;;;;;;;;19.50;99.90;;;;;;5057241;28;19924;-81
2021/07/07 06:54:28;;;;;;;;;;;19.10;99.90;;;;;;5053842;28;19905;-81
2021/07/07 06:56:54;;;;;;;;;;;18.90;99.90;;;;;;5057320;28;19904;-82
2021/07/07 06:59:19;;;;;;;;;;;18.80;99.90;;;;;;5055642;28;19905;-81
2021/07/07 07:01:45;;;;;;;;;;;18.80;99.90;;;;;;5056334;28;19901;-81
2021/07/07 07:04:10;;;;;;;;;;;18.90;99.90;;;;;;5056215;28;19913;-81
2021/07/07 07:06:36;;;;;;;;;;;19.00;99.90;;;;;;5043932;28;19909;-80
2021/07/07 07:09:02;;;;;;;;;;;19.10;99.90;;;;;;5037702;28;19909;-81
2021/07/07 07:11:28;;;;;;;;;;;19.80;99.90;;;;;;5053152;28;20317;-81
2021/07/07 07:13:53;;;;;;;;;;;21.10;99.90;;;;;;5037864;28;19909;-82
2021/07/07 07:16:20;;;;;;;;;;;22.60;99.90;;;;;;5039149;28;19984;-81
2021/07/07 07:18:46;;;;;;;;;;;23.90;99.90;;;;;;5033182;28;19909;-81
2021/07/07 07:21:11;;;;;;;;;;;25.20;99.90;;;;;;5036383;28;19928;-81
2021/07/07 07:23:38;;;;;;;;;;;26.10;99.90;;;;;;5032937;28;19966;-80
2021/07/07 07:26:03;;;;;;;;;;;26.50;99.90;;;;;;5038125;28;20338;-79
2021/07/07 07:28:29;;;;;;;;;;;26.90;99.90;;;;;;5050551;28;19942;-82
2021/07/07 07:30:56;;;;;;;;;;;26.90;99.90;;;;;;5039051;28;19971;-80
2021/07/07 07:33:22;;;;;;;;;;;27.10;99.90;;;;;;5038188;28;20308;-80
2021/07/07 07:35:47;;;;;;;;;;;27.10;99.90;;;;;;5053710;28;19963;-79
2021/07/07 07:38:19;;;;;;;;;;;27.00;99.90;;;;;;5037023;28;19909;-82
2021/07/07 07:40:48;;;;;;;;;;;26.80;99.90;;;;;;5035510;28;19913;-80
2021/07/07 07:43:16;;;;;;;;;;;26.40;99.90;;;;;;5035830;28;19909;-79
2021/07/07 07:45:42;;;;;;;;;;;26.00;99.90;;;;;;5046875;28;20016;-78
2021/07/07 07:48:07;;;;;;;;;;;25.50;99.90;;;;;;5018665;28;20349;-78
2021/07/07 07:50:33;;;;;;;;;;;24.80;99.90;;;;;;5035555;28;19944;-77
2021/07/07 07:52:59;;;;;;;;;;;24.40;99.90;;;;;;5035237;28;19920;-77
2021/07/07 07:55:24;;;;;;;;;;;24.00;99.90;;;;;;5035313;28;19913;-78
2021/07/07 07:57:50;;;;;;;;;;;23.80;99.90;;;;;;5032013;28;19959;-77
2021/07/07 08:00:21;;;;;;;;;;;23.40;99.90;;;;;;5023197;28;20373;-80
2021/07/07 08:02:48;;;;;;;;;;;23.30;99.90;;;;;;5034688;28;19909;-84
2021/07/07 08:05:14;;;;;;;;;;;23.30;99.90;;;;;;5035873;28;19909;-77
2021/07/07 08:07:41;;;;;;;;;;;23.30;99.90;;;;;;5035899;28;19916;-78
2021/07/07 08:10:07;;;;;;;;;;;23.40;99.90;;;;;;5035486;28;20392;-78
2021/07/07 08:12:33;;;;;;;;;;;23.50;99.90;;;;;;5035297;28;19909;-76
2021/07/07 08:14:58;;;;;;;;;;;23.70;99.90;;;;;;5031010;28;20040;-77
2021/07/07 08:17:24;;;;;;;;;;;24.10;99.90;;;;;;5031672;28;19948;-78
2021/07/07 08:19:50;;;;;;;;;;;24.00;99.90;;;;;;5032334;28;19920;-78
2021/07/07 08:22:16;;;;;;;;;;;23.90;99.90;;;;;;5027232;28;19909;-76
2021/07/07 08:24:42;;;;;;;;;;;23.80;99.90;;;;;;5015578;28;19910;-79
2021/07/07 08:27:08;;;;;;;;;;;23.40;99.90;;;;;;5032731;28;19963;-79
2021/07/07 08:29:35;;;;;;;;;;;23.50;99.90;;;;;;5042465;28;19917;-79
2021/07/07 08:32:01;;;;;;;;;;;23.50;99.90;;;;;;5030967;28;20357;-80
2021/07/07 08:34:26;;;;;;;;;;;23.40;99.90;;;;;;5031535;28;19924;-79
2021/07/07 08:36:52;;;;;;;;;;;23.40;99.90;;;;;;5034344;28;19909;-79
2021/07/07 08:39:17;;;;;;;;;;;23.10;99.90;;;;;;5034187;28;19944;-79
2021/07/07 08:41:43;;;;;;;;;;;23.10;99.90;;;;;;5035655;28;20277;-83
2021/07/07 08:44:08;;;;;;;;;;;23.00;99.90;;;;;;5034714;28;19913;-78
2021/07/07 08:46:34;;;;;;;;;;;22.90;99.90;;;;;;5035338;28;19915;-79
2021/07/07 08:49:00;;;;;;;;;;;22.70;99.90;;;;;;5034174;28;19916;-79
2021/07/07 08:51:25;;;;;;;;;;;23.00;99.90;;;;;;5035656;28;19916;-78
2021/07/07 08:53:51;;;;;;;;;;;23.10;99.90;;;;;;5033802;28;19923;-79
2021/07/07 08:56:16;;;;;;;;;;;23.50;99.90;;;;;;5034093;28;19915;-79
2021/07/07 08:58:42;;;;;;;;;;;23.80;99.90;;;;;;5033386;28;19913;-77
2021/07/07 09:01:08;;;;;;;;;;;23.90;99.90;;;;;;5029197;28;19913;-79
2021/07/07 09:03:33;;;;;;;;;;;24.00;99.90;;;;;;5033408;28;19917;-77
2021/07/07 09:06:03;;;;;;;;;;;23.90;99.90;;;;;;5032048;28;19913;-77
2021/07/07 09:08:35;;;;;;;;;;;23.60;99.90;;;;;;5029986;28;19909;-77
2021/07/07 09:11:20;;;;;;;;;;;23.20;99.90;;;;;;5033289;28;19960;-77
2021/07/07 09:14:06;;;;;;;;;;;23.40;99.90;;;;;;5040345;28;19909;-77
2021/07/07 09:16:43;;;;;;;;;;;23.70;99.90;;;;;;5021673;28;19928;-77
2021/07/07 09:19:16;;;;;;;;;;;23.80;99.90;;;;;;5028075;28;19913;-77
2021/07/07 09:21:46;;;;;;;;;;;23.60;99.90;;;;;;5035028;28;19909;-77
2021/07/07 09:24:17;;;;;;;;;;;23.70;99.90;;;;;;5034852;28;19909;-77
2021/07/07 09:26:42;;;;;;;;;;;23.80;99.90;;;;;;5033337;28;20331;-78
2021/07/07 09:29:08;;;;;;;;;;;24.00;99.90;;;;;;5034297;28;19909;-78
2021/07/07 09:31:35;;;;;;;;;;;24.00;99.90;;;;;;5034470;28;19909;-79
2021/07/07 09:34:12;;;;;;;;;;;23.80;99.90;;;;;;5035221;28;19909;-78
2021/07/07 09:36:38;;;;;;;;;;;23.40;99.90;;;;;;5017240;28;19905;-77
2021/07/07 09:39:04;;;;;;;;;;;23.10;99.90;;;;;;5033487;28;19909;-77
2021/07/07 09:41:30;;;;;;;;;;;22.70;99.90;;;;;;5033705;28;20005;-77
2021/07/07 09:43:55;;;;;;;;;;;22.40;99.90;;;;;;5038868;28;19912;-78
2021/07/07 09:46:22;;;;;;;;;;;22.20;99.90;;;;;;5033174;28;19909;-77
2021/07/07 09:48:48;;;;;;;;;;;22.10;99.90;;;;;;5034547;28;19947;-78
2021/07/07 09:51:14;;;;;;;;;;;21.90;99.90;;;;;;5033094;28;20328;-80
2021/07/07 09:53:40;;;;;;;;;;;21.70;99.90;;;;;;5033159;28;19916;-77
2021/07/07 09:56:05;;;;;;;;;;;21.60;99.90;;;;;;5032611;28;19917;-78
2021/07/07 09:58:31;;;;;;;;;;;21.50;99.90;;;;;;5033721;28;19909;-78
2021/07/07 10:00:57;;;;;;;;;;;22.00;99.90;;;;;;5033985;28;19909;-77
2021/07/07 10:03:22;;;;;;;;;;;22.90;99.90;;;;;;5034200;28;20277;-79
2021/07/07 10:05:50;;;;;;;;;;;23.60;99.90;;;;;;5031118;28;19932;-77
2021/07/07 10:08:16;;;;;;;;;;;23.60;99.90;;;;;;5027661;28;19909;-77
2021/07/07 10:10:42;;;;;;;;;;;23.50;99.90;;;;;;5030424;28;19910;-78
2021/07/07 10:13:10;;;;;;;;;;;23.40;99.90;;;;;;5027320;28;20267;-78
2021/07/07 10:15:36;;;;;;;;;;;23.20;99.90;;;;;;5029996;28;20273;-77
2021/07/07 10:18:02;;;;;;;;;;;22.90;99.90;;;;;;5027028;28;19909;-76
2021/07/07 10:20:28;;;;;;;;;;;23.00;99.90;;;;;;5022490;28;19913;-78
2021/07/07 10:22:55;;;;;;;;;;;23.50;99.90;;;;;;5033590;28;19917;-80
2021/07/07 10:25:23;;;;;;;;;;;24.00;99.90;;;;;;5031324;28;19963;-78
2021/07/07 10:27:49;;;;;;;;;;;24.40;99.90;;;;;;5028433;28;19913;-79
2021/07/07 10:30:15;;;;;;;;;;;24.70;99.90;;;;;;5037034;28;19909;-80
2021/07/07 10:32:41;;;;;;;;;;;24.40;99.90;;;;;;5032885;28;19909;-79
2021/07/07 10:35:07;;;;;;;;;;;23.80;99.90;;;;;;5031460;28;20328;-82
2021/07/07 10:37:34;;;;;;;;;;;23.30;99.90;;;;;;5024666;28;19909;-82
2021/07/07 10:40:19;;;;;;;;;;;22.80;99.90;;;;;;5027826;28;19971;-80
2021/07/07 10:42:44;;;;;;;;;;;22.50;99.90;;;;;;5029161;28;19951;-80
2021/07/07 10:45:28;;;;;;;;;;;22.20;99.90;;;;;;5032098;28;19944;-80
2021/07/07 10:47:54;;;;;;;;;;;22.10;99.90;;;;;;5029652;28;19976;-75
2021/07/07 10:50:32;;;;;;;;;;;21.90;99.90;;;;;;5039307;28;19951;-78
2021/07/07 10:52:58;;;;;;;;;;;21.90;99.90;;;;;;5033936;28;20350;-75
2021/07/07 10:55:24;;;;;;;;;;;21.80;99.90;;;;;;5036649;28;19921;-78
2021/07/07 10:57:50;;;;;;;;;;;21.80;99.90;;;;;;5029650;28;19909;-77
2021/07/07 11:00:30;;;;;;;;;;;22.00;99.90;;;;;;5034236;28;19913;-77
2021/07/07 11:03:14;;;;;;;;;;;22.40;99.90;;;;;;5034883;28;20395;-76
2021/07/07 11:05:40;;;;;;;;;;;22.60;99.90;;;;;;5033757;28;20358;-78
2021/07/07 11:08:13;;;;;;;;;;;22.50;99.90;;;;;;5034372;28;19916;-77
2021/07/07 11:10:53;;;;;;;;;;;22.50;99.90;;;;;;5034024;28;19913;-76
2021/07/07 11:13:19;;;;;;;;;;;22.50;99.90;;;;;;5034340;28;19913;-81
2021/07/07 11:15:46;;;;;;;;;;;22.80;99.90;;;;;;5037693;28;19958;-81
2021/07/07 11:18:17;;;;;;;;;;;23.20;99.90;;;;;;5035916;28;20444;-75
2021/07/07 11:20:44;;;;;;;;;;;23.40;99.90;;;;;;5035553;28;19913;-80
2021/07/07 11:23:11;;;;;;;;;;;23.50;99.90;;;;;;5032754;28;19920;-78
2021/07/07 11:25:40;;;;;;;;;;;23.70;99.90;;;;;;5024329;28;19905;-78
2021/07/07 11:28:07;;;;;;;;;;;23.90;99.90;;;;;;5035423;28;19909;-75
2021/07/07 11:30:33;;;;;;;;;;;24.00;99.90;;;;;;5034057;28;21267;-77
2021/07/07 11:33:05;;;;;;;;;;;24.10;99.90;;;;;;5035614;28;20020;-78
2021/07/07 11:35:31;;;;;;;;;;;24.00;99.90;;;;;;5033014;28;20277;-81
2021/07/07 11:37:58;;;;;;;;;;;23.70;99.90;;;;;;5028696;28;19910;-85
2021/07/07 11:40:25;;;;;;;;;;;23.60;99.90;;;;;;5037947;28;19913;-83
2021/07/07 11:42:52;;;;;;;;;;;23.40;99.90;;;;;;5027423;28;20396;-81
2021/07/07 11:45:20;;;;;;;;;;;23.30;99.90;;;;;;5033175;28;20367;-84
2021/07/07 11:47:48;;;;;;;;;;;23.10;99.90;;;;;;5050057;28;19947;-82
2021/07/07 11:50:14;;;;;;;;;;;22.80;99.90;;;;;;5044846;28;19917;-85
2021/07/07 11:52:58;;;;;;;;;;;22.60;99.90;;;;;;5030764;28;19952;-81
2021/07/07 11:55:42;;;;;;;;;;;22.20;99.90;;;;;;5035206;28;19920;-81
2021/07/07 11:58:11;;;;;;;;;;;21.90;99.90;;;;;;5033961;28;19912;-81
2021/07/07 12:00:38;;;;;;;;;;;21.80;99.90;;;;;;5033593;28;20007;-80
2021/07/07 12:03:03;;;;;;;;;;;22.00;99.90;;;;;;5034808;28;19932;-83
2021/07/07 12:05:29;;;;;;;;;;;22.40;99.90;;;;;;5035935;28;19909;-82
2021/07/07 12:08:13;;;;;;;;;;;22.60;99.90;;;;;;5035492;28;19909;-80
2021/07/07 12:10:39;;;;;;;;;;;22.70;99.90;;;;;;5031772;28;19908;-82
2021/07/07 12:13:25;;;;;;;;;;;22.70;99.90;;;;;;5035103;28;19915;-83
2021/07/07 12:15:51;;;;;;;;;;;22.60;99.90;;;;;;5035433;28;20423;-83
2021/07/07 12:18:23;;;;;;;;;;;22.60;99.90;;;;;;5036666;28;19909;-82
2021/07/07 12:20:49;;;;;;;;;;;22.50;99.90;;;;;;5034549;28;20012;-82
2021/07/07 12:23:14;;;;;;;;;;;22.40;99.90;;;;;;5036283;28;19948;-82
2021/07/07 12:25:40;;;;;;;;;;;22.40;99.90;;;;;;5032108;28;19909;-81
2021/07/07 12:28:05;;;;;;;;;;;22.50;99.90;;;;;;5036647;28;19925;-83
2021/07/07 12:30:31;;;;;;;;;;;22.50;99.90;;;;;;5037359;28;19913;-83
2021/07/07 12:32:56;;;;;;;;;;;22.50;99.90;;;;;;5034974;28;19916;-85
2021/07/07 12:35:24;;;;;;;;;;;22.50;99.90;;;;;;5036914;28;19905;-81
2021/07/07 12:37:50;;;;;;;;;;;22.60;99.90;;;;;;5029489;28;19976;-83
2021/07/07 12:40:21;;;;;;;;;;;22.80;99.90;;;;;;5047351;28;20294;-81
2021/07/07 12:42:50;;;;;;;;;;;23.20;99.90;;;;;;5035136;28;19928;-85
2021/07/07 12:45:17;;;;;;;;;;;23.70;99.90;;;;;;5036210;28;19916;-81
2021/07/07 12:47:44;;;;;;;;;;;24.10;99.90;;;;;;5037561;28;20372;-86
2021/07/07 12:50:20;;;;;;;;;;;24.20;99.90;;;;;;5042988;28;19909;-82
2021/07/07 12:52:46;;;;;;;;;;;24.10;99.90;;;;;;5051736;28;19896;-82
2021/07/07 12:55:18;;;;;;;;;;;23.90;99.90;;;;;;5055267;28;19893;-80
2021/07/07 12:57:45;;;;;;;;;;;23.60;99.90;;;;;;5058767;28;19913;-81
2021/07/07 13:00:11;;;;;;;;;;;23.30;99.90;;;;;;5049781;28;20060;-81
2021/07/07 13:02:49;;;;;;;;;;;23.00;99.90;;;;;;5053545;28;19908;-83
2021/07/07 13:05:15;;;;;;;;;;;22.60;99.90;;;;;;5054813;28;19893;-82
2021/07/07 13:07:42;;;;;;;;;;;22.50;99.90;;;;;;5052951;28;19908;-80
2021/07/07 13:10:08;;;;;;;;;;;22.40;99.90;;;;;;5054563;28;19936;-82
2021/07/07 13:12:33;;;;;;;;;;;22.20;99.90;;;;;;5053033;28;19913;-80
2021/07/07 13:14:59;;;;;;;;;;;22.10;99.90;;;;;;5046512;28;19927;-81
2021/07/07 13:17:25;;;;;;;;;;;22.10;99.90;;;;;;5054233;28;19919;-82
2021/07/07 13:19:58;;;;;;;;;;;22.30;99.90;;;;;;5054781;28;19972;-80
2021/07/07 13:22:23;;;;;;;;;;;22.50;99.90;;;;;;5057752;28;19936;-80
2021/07/07 13:24:50;;;;;;;;;;;22.90;99.90;;;;;;5055503;28;19921;-81
2021/07/07 13:27:18;;;;;;;;;;;23.20;99.90;;;;;;5053947;28;19961;-82
2021/07/07 13:29:47;;;;;;;;;;;23.30;99.90;;;;;;5056879;28;19893;-80
2021/07/07 13:32:20;;;;;;;;;;;23.50;99.90;;;;;;5053547;28;19928;-81
2021/07/07 13:34:45;;;;;;;;;;;23.50;99.90;;;;;;5052782;28;19936;-81
2021/07/07 13:37:11;;;;;;;;;;;23.50;99.90;;;;;;5059641;28;19913;-78
2021/07/07 13:39:37;;;;;;;;;;;23.40;99.90;;;;;;5063116;28;19959;-80
2021/07/07 13:42:02;;;;;;;;;;;23.20;99.90;;;;;;5037859;28;19915;-80
2021/07/07 13:44:28;;;;;;;;;;;23.20;99.90;;;;;;5048785;28;19912;-83
2021/07/07 13:46:53;;;;;;;;;;;23.10;99.90;;;;;;5040644;28;19967;-81
2021/07/07 13:49:19;;;;;;;;;;;23.00;99.90;;;;;;5044913;28;19974;-82
2021/07/07 13:51:44;;;;;;;;;;;23.00;99.90;;;;;;5036130;28;20270;-81
2021/07/07 13:54:11;;;;;;;;;;;23.00;99.90;;;;;;5037136;28;19956;-81
2021/07/07 13:56:36;;;;;;;;;;;23.00;99.90;;;;;;5028630;28;20276;-82
2021/07/07 13:59:02;;;;;;;;;;;23.00;99.90;;;;;;5040443;28;19909;-82
2021/07/07 14:01:28;;;;;;;;;;;23.10;99.90;;;;;;5040715;28;20423;-81
2021/07/07 14:03:53;;;;;;;;;;;23.10;99.90;;;;;;5039897;28;20262;-87
2021/07/07 14:06:19;;;;;;;;;;;23.00;99.90;;;;;;5033462;28;19920;-85
2021/07/07 14:08:44;;;;;;;;;;;23.00;99.90;;;;;;5041398;28;19964;-82
2021/07/07 14:11:10;;;;;;;;;;;22.90;99.90;;;;;;5038189;28;19993;-82
2021/07/07 14:13:35;;;;;;;;;;;22.80;99.90;;;;;;5041067;28;19915;-83